Time;durP1;ratioP1;P1;durP2;ratioP2;P2;SDS_P1;SDS_P2;PMS_P1;PMS_P2;Temp;Humidity;BMP_temperature;BMP_pressure;BME280_temperature;BME280_humidity;BME280_pressure;Samples;Min_cycle;Max_cycle;Signal;HPM_P1;HPM_P2
2022/10/06 00:01:10;;;;;;;8.40;7.03;;;17.50;99.90;;;;;;4590317;19;20018;-39
2022/10/06 00:02:49;;;;;;;10.20;7.00;;;17.50;99.90;;;;;;4590971;19;20014;-36
2022/10/06 00:04:20;;;;;;;8.90;6.95;;;17.50;99.90;;;;;;4591592;19;20011;-38
2022/10/06 00:05:51;;;;;;;8.93;6.53;;;17.50;99.90;;;;;;4592924;19;20497;-36
2022/10/06 00:07:23;;;;;;;9.88;6.65;;;17.50;99.90;;;;;;4590499;19;20051;-37
2022/10/06 00:08:54;;;;;;;10.60;6.80;;;17.50;99.90;;;;;;4591467;19;20011;-34
2022/10/06 00:10:25;;;;;;;8.40;6.55;;;17.50;99.90;;;;;;4592185;19;20012;-38
2022/10/06 00:11:56;;;;;;;10.50;7.35;;;17.50;99.90;;;;;;4591231;19;20034;-34
2022/10/06 00:13:27;;;;;;;8.13;6.60;;;17.50;99.90;;;;;;4592075;19;20015;-35
2022/10/06 00:14:58;;;;;;;10.10;6.97;;;17.50;99.90;;;;;;4590866;19;20018;-35
2022/10/06 00:16:29;;;;;;;12.05;7.03;;;17.50;99.90;;;;;;4591744;19;20007;-34
2022/10/06 00:18:01;;;;;;;8.95;6.68;;;17.50;99.90;;;;;;4591853;19;20014;-33
2022/10/06 00:19:32;;;;;;;;;;;17.50;99.90;;;;;;4592473;19;20347;-33
2022/10/06 00:21:03;;;;;;;9.98;6.55;;;17.50;99.90;;;;;;4592092;19;19914;-33
2022/10/06 00:22:36;;;;;;;9.52;7.05;;;17.50;99.90;;;;;;4591655;19;20448;-37
2022/10/06 00:24:07;;;;;;;9.77;6.68;;;17.50;99.90;;;;;;4591534;19;20074;-35
2022/10/06 00:25:38;;;;;;;8.38;6.00;;;17.50;99.90;;;;;;4591875;19;20024;-39
2022/10/06 00:27:09;;;;;;;9.20;7.05;;;17.50;99.90;;;;;;4591195;19;20026;-37
2022/10/06 00:28:40;;;;;;;8.27;7.00;;;17.50;99.90;;;;;;4592101;19;20003;-33
2022/10/06 00:30:16;;;;;;;8.60;6.35;;;17.50;99.90;;;;;;4591803;19;20011;-35
2022/10/06 00:31:47;;;;;;;8.68;7.47;;;17.40;99.90;;;;;;4590569;19;20035;-35
2022/10/06 00:33:19;;;;;;;7.53;5.85;;;17.50;99.90;;;;;;4591646;19;20029;-38
2022/10/06 00:34:52;;;;;;;10.63;7.05;;;17.40;99.90;;;;;;4591522;19;20027;-36
2022/10/06 00:36:23;;;;;;;8.77;6.15;;;17.40;99.90;;;;;;4591295;19;20408;-33
2022/10/06 00:37:55;;;;;;;8.07;6.50;;;17.40;99.90;;;;;;4591687;19;20044;-36
2022/10/06 00:39:26;;;;;;;11.52;7.53;;;17.40;99.90;;;;;;4591544;19;20014;-33
2022/10/06 00:40:57;;;;;;;7.70;6.15;;;17.40;99.90;;;;;;4591050;19;20553;-35
2022/10/06 00:42:30;;;;;;;8.52;6.68;;;17.40;99.90;;;;;;4590310;19;20006;-33
2022/10/06 00:44:01;;;;;;;10.40;6.90;;;17.40;99.90;;;;;;4591031;19;20011;-37
2022/10/06 00:45:35;;;;;;;9.30;6.20;;;17.50;99.90;;;;;;4591132;19;20011;-38
2022/10/06 00:47:06;;;;;;;9.18;5.82;;;17.50;99.90;;;;;;4590005;19;20044;-33
2022/10/06 00:48:37;;;;;;;9.38;6.70;;;17.40;99.90;;;;;;4590917;19;20334;-37
2022/10/06 00:50:10;;;;;;;8.13;6.10;;;17.40;99.90;;;;;;4590964;19;20011;-34
2022/10/06 00:51:44;;;;;;;11.07;6.40;;;17.40;99.90;;;;;;4590888;19;20025;-33
2022/10/06 00:53:15;;;;;;;9.00;6.18;;;17.40;99.90;;;;;;4590775;19;20007;-34
2022/10/06 00:54:47;;;;;;;8.18;6.07;;;17.40;99.90;;;;;;4591049;19;20014;-34
2022/10/06 00:56:18;;;;;;;8.57;6.13;;;17.50;99.90;;;;;;4591499;19;20035;-35
2022/10/06 00:57:49;;;;;;;8.77;6.00;;;17.50;99.90;;;;;;4589717;19;20018;-42
2022/10/06 00:59:21;;;;;;;9.32;6.30;;;17.60;99.90;;;;;;4590453;19;20346;-35
2022/10/06 01:00:54;;;;;;;10.20;6.97;;;17.50;99.90;;;;;;4591368;19;20019;-35
2022/10/06 01:02:41;;;;;;;9.00;6.35;;;17.60;99.90;;;;;;4588432;19;20010;-40
2022/10/06 01:04:13;;;;;;;7.75;6.10;;;17.60;99.90;;;;;;4589285;19;20007;-39
2022/10/06 01:05:45;;;;;;;;;;;17.60;99.90;;;;;;4589517;19;20011;-41
2022/10/06 01:07:17;;;;;;;11.77;7.10;;;17.60;99.90;;;;;;4588650;19;19929;-33
2022/10/06 01:08:49;;;;;;;9.15;6.88;;;17.60;99.90;;;;;;4587897;19;20006;-38
2022/10/06 01:10:20;;;;;;;8.05;6.28;;;17.50;99.90;;;;;;4589432;19;20014;-35
2022/10/06 01:11:53;;;;;;;9.05;6.82;;;17.50;99.90;;;;;;4588236;19;20038;-39
2022/10/06 01:13:24;;;;;;;8.38;6.30;;;17.50;99.90;;;;;;4591821;19;20010;-36
2022/10/06 01:14:55;;;;;;;8.73;6.30;;;17.60;99.90;;;;;;4593263;19;20028;-39
2022/10/06 01:16:26;;;;;;;8.25;6.10;;;17.50;99.90;;;;;;4592568;19;20131;-37
2022/10/06 01:18:01;;;;;;;7.32;5.72;;;17.50;99.90;;;;;;4592108;19;20337;-34
2022/10/06 01:19:37;;;;;;;7.82;5.53;;;17.50;99.90;;;;;;4592045;19;20461;-37
2022/10/06 01:21:13;;;;;;;8.43;6.63;;;17.50;99.90;;;;;;4591917;19;20556;-35
2022/10/06 01:22:47;;;;;;;8.25;6.07;;;17.50;99.90;;;;;;4591096;19;20456;-35
2022/10/06 01:24:18;;;;;;;7.75;6.10;;;17.50;99.90;;;;;;4591094;19;20015;-34
2022/10/06 01:25:49;;;;;;;8.55;5.90;;;17.50;99.90;;;;;;4591261;19;20014;-35
2022/10/06 01:27:20;;;;;;;7.60;5.80;;;17.50;99.90;;;;;;4594255;19;20014;-35
2022/10/06 01:28:51;;;;;;;8.15;6.50;;;17.50;99.90;;;;;;4593284;19;20560;-33
2022/10/06 01:30:25;;;;;;;8.00;5.72;;;17.50;99.90;;;;;;4592670;19;20019;-39
2022/10/06 01:31:56;;;;;;;8.48;6.22;;;17.50;99.90;;;;;;4591452;19;20362;-33
2022/10/06 01:33:28;;;;;;;8.30;5.90;;;17.50;99.90;;;;;;4593059;19;20018;-38
2022/10/06 01:34:59;;;;;;;6.93;5.57;;;17.50;99.90;;;;;;4593704;19;20348;-33
2022/10/06 01:36:30;;;;;;;8.10;6.22;;;17.50;99.90;;;;;;4592962;19;20504;-34
2022/10/06 01:38:01;;;;;;;8.32;6.13;;;17.50;99.90;;;;;;4593035;19;20463;-33
2022/10/06 01:39:33;;;;;;;7.55;5.85;;;17.50;99.90;;;;;;4593218;19;20015;-35
2022/10/06 01:41:04;;;;;;;8.50;6.18;;;17.50;99.90;;;;;;4595169;19;20021;-34
2022/10/06 01:42:35;;;;;;;7.25;5.50;;;17.50;99.90;;;;;;4595046;19;20011;-39
2022/10/06 01:44:06;;;;;;;8.25;5.93;;;17.50;99.90;;;;;;4594936;19;20317;-37
2022/10/06 01:45:38;;;;;;;9.07;6.45;;;17.50;99.90;;;;;;4592739;19;20373;-37
2022/10/06 01:47:09;;;;;;;8.57;6.32;;;17.50;99.90;;;;;;4592960;19;20044;-33
2022/10/06 01:48:40;;;;;;;6.72;5.20;;;17.50;99.90;;;;;;4594405;19;20022;-33
2022/10/06 01:50:11;;;;;;;7.20;6.10;;;17.50;99.90;;;;;;4594237;19;20010;-33
2022/10/06 01:51:42;;;;;;;7.65;5.57;;;17.50;99.90;;;;;;4591621;19;20015;-41
2022/10/06 01:53:13;;;;;;;7.57;5.47;;;17.50;99.90;;;;;;4591978;19;20011;-41
2022/10/06 01:54:44;;;;;;;9.32;6.30;;;17.50;99.90;;;;;;4592750;19;20110;-39
2022/10/06 01:56:15;;;;;;;7.55;5.72;;;17.40;99.90;;;;;;4592851;19;20390;-35
2022/10/06 01:57:46;;;;;;;8.05;5.07;;;17.50;99.90;;;;;;4595307;19;20014;-39
2022/10/06 01:59:17;;;;;;;9.43;6.10;;;17.50;99.90;;;;;;4594917;19;20481;-37
2022/10/06 02:00:49;;;;;;;8.05;5.72;;;17.50;99.90;;;;;;4594702;19;20512;-38
2022/10/06 02:02:20;;;;;;;11.90;6.60;;;17.50;99.90;;;;;;4594397;19;20018;-35
2022/10/06 02:03:52;;;;;;;7.65;6.10;;;17.50;99.90;;;;;;4593799;19;20014;-37
2022/10/06 02:05:23;;;;;;;8.38;5.68;;;17.50;99.90;;;;;;4592089;19;20011;-36
2022/10/06 02:06:54;;;;;;;9.80;6.32;;;17.50;99.90;;;;;;4593021;19;20110;-34
2022/10/06 02:08:25;;;;;;;8.98;5.57;;;17.50;99.90;;;;;;4592719;19;20006;-40
2022/10/06 02:09:56;;;;;;;8.68;5.95;;;17.40;99.90;;;;;;4592186;19;20475;-34
2022/10/06 02:11:27;;;;;;;7.78;5.93;;;17.40;99.90;;;;;;4590720;19;20021;-36
2022/10/06 02:12:58;;;;;;;9.15;5.63;;;17.40;99.90;;;;;;4595069;19;20031;-33
2022/10/06 02:14:33;;;;;;;6.93;5.30;;;17.50;99.90;;;;;;4594121;19;20019;-35
2022/10/06 02:16:05;;;;;;;7.22;5.22;;;17.50;99.90;;;;;;4594189;19;20059;-36
2022/10/06 02:17:37;;;;;;;7.35;5.88;;;17.40;99.90;;;;;;4592955;19;20011;-38
2022/10/06 02:19:08;;;;;;;7.38;5.90;;;17.40;99.90;;;;;;4593682;19;20002;-35
2022/10/06 02:20:39;;;;;;;8.88;5.88;;;17.40;99.90;;;;;;4594244;19;20010;-33
2022/10/06 02:22:10;;;;;;;7.95;5.70;;;17.40;99.90;;;;;;4594208;19;20503;-36
2022/10/06 02:23:41;;;;;;;10.30;5.63;;;17.40;99.90;;;;;;4592056;19;20014;-35
2022/10/06 02:25:12;;;;;;;6.18;5.30;;;17.40;99.90;;;;;;4593837;19;20020;-35
2022/10/06 02:26:43;;;;;;;7.03;5.45;;;17.40;99.90;;;;;;4593359;19;20030;-33
2022/10/06 02:28:15;;;;;;;7.63;5.53;;;17.40;99.90;;;;;;4592336;19;20480;-33
2022/10/06 02:29:48;;;;;;;7.80;5.40;;;17.50;99.90;;;;;;4594455;19;20006;-38
2022/10/06 02:31:19;;;;;;;8.55;5.68;;;17.40;99.90;;;;;;4591031;19;20010;-34
2022/10/06 02:32:50;;;;;;;8.18;5.85;;;17.40;99.90;;;;;;4593285;19;20015;-33
2022/10/06 02:34:21;;;;;;;8.43;5.57;;;17.40;99.90;;;;;;4593984;19;20402;-33
2022/10/06 02:35:55;;;;;;;7.15;5.85;;;17.40;99.90;;;;;;4594718;19;20010;-37
2022/10/06 02:37:26;;;;;;;7.63;5.60;;;17.40;99.90;;;;;;4593717;19;20006;-37
2022/10/06 02:38:57;;;;;;;7.32;5.65;;;17.40;99.90;;;;;;4594081;19;20010;-35
2022/10/06 02:40:29;;;;;;;6.93;5.38;;;17.40;99.90;;;;;;4594486;19;20078;-41
2022/10/06 02:42:00;;;;;;;7.90;6.03;;;17.40;99.90;;;;;;4593469;19;20014;-38
2022/10/06 02:43:32;;;;;;;8.57;5.78;;;17.40;99.90;;;;;;4592287;19;20382;-34
2022/10/06 02:45:05;;;;;;;8.02;5.70;;;17.40;99.90;;;;;;4593544;19;20014;-34
2022/10/06 02:46:37;;;;;;;6.35;5.53;;;17.40;99.90;;;;;;4593774;19;20047;-40
2022/10/06 02:48:10;;;;;;;7.65;6.50;;;17.40;99.90;;;;;;4593381;19;20007;-33
2022/10/06 02:49:41;;;;;;;6.50;5.18;;;17.50;99.90;;;;;;4593409;19;20015;-33
2022/10/06 02:51:14;;;;;;;7.65;5.88;;;17.40;99.90;;;;;;4592631;19;20022;-34
2022/10/06 02:52:46;;;;;;;8.75;5.22;;;17.40;99.90;;;;;;4593994;19;20011;-36
2022/10/06 02:54:17;;;;;;;8.80;6.40;;;17.40;99.90;;;;;;4593302;19;20030;-36
2022/10/06 02:55:48;;;;;;;8.48;6.65;;;17.40;99.90;;;;;;4593789;19;20011;-35
2022/10/06 02:57:19;;;;;;;6.80;5.18;;;17.40;99.90;;;;;;4593436;19;20313;-38
2022/10/06 02:58:51;;;;;;;7.35;5.60;;;17.40;99.90;;;;;;4593921;19;20050;-34
2022/10/06 03:00:22;;;;;;;6.88;5.45;;;17.40;99.90;;;;;;4593304;19;20456;-35
2022/10/06 03:01:54;;;;;;;9.05;5.93;;;17.40;99.90;;;;;;4593868;19;20014;-34
2022/10/06 03:03:25;;;;;;;7.22;5.57;;;17.40;99.90;;;;;;4593306;19;20314;-41
2022/10/06 03:04:56;;;;;;;7.40;5.68;;;17.40;99.90;;;;;;4593465;19;20045;-37
2022/10/06 03:06:28;;;;;;;7.63;5.88;;;17.40;99.90;;;;;;4593013;19;20324;-33
2022/10/06 03:07:59;;;;;;;8.93;6.35;;;17.40;99.90;;;;;;4593181;19;20066;-37
2022/10/06 03:09:30;;;;;;;7.03;5.47;;;17.40;99.90;;;;;;4594048;19;20010;-33
2022/10/06 03:11:02;;;;;;;7.50;5.57;;;17.40;99.90;;;;;;4592841;19;20037;-34
2022/10/06 03:12:33;;;;;;;6.88;5.35;;;17.40;99.90;;;;;;4591625;19;20034;-35
2022/10/06 03:14:05;;;;;;;7.18;5.15;;;17.40;99.90;;;;;;4593489;19;20010;-33
2022/10/06 03:15:36;;;;;;;7.22;5.20;;;17.40;99.90;;;;;;4592943;19;20010;-34
2022/10/06 03:17:10;;;;;;;8.93;5.43;;;17.40;99.90;;;;;;4592884;19;20010;-38
2022/10/06 03:18:43;;;;;;;7.47;5.63;;;17.40;99.90;;;;;;4591709;19;20011;-34
2022/10/06 03:20:15;;;;;;;7.32;5.30;;;17.40;99.90;;;;;;4592223;19;20015;-34
2022/10/06 03:21:46;;;;;;;7.97;5.40;;;17.40;99.90;;;;;;4593096;19;20018;-36
2022/10/06 03:23:17;;;;;;;7.95;5.75;;;17.40;99.90;;;;;;4592207;19;20380;-35
2022/10/06 03:24:48;;;;;;;6.15;4.93;;;17.40;99.90;;;;;;4593219;19;20066;-40
2022/10/06 03:26:20;;;;;;;5.78;4.88;;;17.40;99.90;;;;;;4593271;19;20022;-35
2022/10/06 03:27:51;;;;;;;6.65;5.50;;;17.40;99.90;;;;;;4592919;19;20010;-33
2022/10/06 03:29:22;;;;;;;6.22;5.32;;;17.40;99.90;;;;;;4592587;19;20345;-33
2022/10/06 03:30:53;;;;;;;8.95;5.82;;;17.40;99.90;;;;;;4593016;19;20015;-39
2022/10/06 03:32:24;;;;;;;9.52;5.68;;;17.40;99.90;;;;;;4590508;19;20023;-33
2022/10/06 03:33:56;;;;;;;10.70;5.93;;;17.40;99.90;;;;;;4592189;19;20018;-33
2022/10/06 03:35:27;;;;;;;7.45;5.63;;;17.40;99.90;;;;;;4590634;19;20010;-34
2022/10/06 03:36:58;;;;;;;8.10;5.55;;;17.40;99.90;;;;;;4593138;19;20017;-36
2022/10/06 03:38:31;;;;;;;6.13;5.50;;;17.40;99.90;;;;;;4593394;19;19998;-34
2022/10/06 03:40:02;;;;;;;6.60;5.50;;;17.40;99.90;;;;;;4592171;19;20021;-34
2022/10/06 03:41:34;;;;;;;;;;;17.30;99.90;;;;;;4593597;19;20007;-39
2022/10/06 03:43:07;;;;;;;6.93;6.07;;;17.30;99.90;;;;;;4592519;19;20315;-33
2022/10/06 03:44:38;;;;;;;8.02;5.57;;;17.40;99.90;;;;;;4591923;19;20014;-34
2022/10/06 03:46:18;;;;;;;7.50;5.68;;;17.40;99.90;;;;;;4591200;19;20021;-36
2022/10/06 03:47:50;;;;;;;7.72;5.88;;;17.40;99.90;;;;;;4592282;19;20476;-33
2022/10/06 03:49:21;;;;;;;7.32;6.10;;;17.40;99.90;;;;;;4593103;19;20002;-33
2022/10/06 03:51:34;;;;;;;8.25;6.05;;;17.40;99.90;;;;;;4592683;19;20025;-34
2022/10/06 03:53:06;;;;;;;7.13;5.60;;;17.40;99.90;;;;;;4591290;19;20014;-33
2022/10/06 03:54:37;;;;;;;8.60;5.88;;;17.40;99.90;;;;;;4591787;19;20018;-35
2022/10/06 03:56:21;;;;;;;7.93;5.57;;;17.40;99.90;;;;;;4592150;19;20322;-33
2022/10/06 03:57:56;;;;;;;8.75;5.40;;;17.30;99.90;;;;;;4592153;19;20019;-39
2022/10/06 03:59:32;;;;;;;7.20;5.82;;;17.30;99.90;;;;;;4592472;19;20010;-35
2022/10/06 04:01:23;;;;;;;8.60;6.40;;;17.40;99.90;;;;;;4591840;19;20015;-33
2022/10/06 04:02:54;;;;;;;10.38;6.60;;;17.40;99.90;;;;;;4592075;19;20456;-35
2022/10/06 04:04:27;;;;;;;8.07;6.78;;;17.40;99.90;;;;;;4592271;19;20022;-36
2022/10/06 04:05:59;;;;;;;9.00;6.57;;;17.30;99.90;;;;;;4592658;19;20002;-34
2022/10/06 04:07:30;;;;;;;9.50;6.88;;;17.30;99.90;;;;;;4592094;19;20022;-34
2022/10/06 04:09:02;;;;;;;8.02;6.85;;;17.40;99.90;;;;;;4591910;19;20317;-34
2022/10/06 04:10:33;;;;;;;8.45;6.47;;;17.30;99.90;;;;;;4591926;19;20055;-36
2022/10/06 04:12:04;;;;;;;6.30;5.60;;;17.40;99.90;;;;;;4590510;19;20010;-36
2022/10/06 04:13:35;;;;;;;6.82;5.70;;;17.40;99.90;;;;;;4591278;19;20026;-40
2022/10/06 04:15:07;;;;;;;8.75;6.18;;;17.40;99.90;;;;;;4591958;19;20011;-34
2022/10/06 04:16:39;;;;;;;;;;;17.40;99.90;;;;;;4593068;19;20034;-39
2022/10/06 04:18:10;;;;;;;8.05;5.43;;;17.40;99.90;;;;;;4589610;19;19911;-37
2022/10/06 04:19:41;;;;;;;6.88;5.55;;;17.30;99.90;;;;;;4591021;19;20440;-33
2022/10/06 04:21:12;;;;;;;9.10;5.40;;;17.40;99.90;;;;;;4591995;19;20011;-41
2022/10/06 04:22:43;;;;;;;9.82;6.45;;;17.40;99.90;;;;;;4591723;19;20089;-36
2022/10/06 04:24:17;;;;;;;10.43;6.13;;;17.40;99.90;;;;;;4590965;19;20305;-33
2022/10/06 04:25:48;;;;;;;8.15;6.82;;;17.40;99.90;;;;;;4591162;19;20010;-35
2022/10/06 04:27:28;;;;;;;8.93;7.38;;;17.40;99.90;;;;;;4591862;19;20011;-37
2022/10/06 04:29:02;;;;;;;10.52;7.40;;;17.40;99.90;;;;;;4592625;19;20020;-37
2022/10/06 04:30:33;;;;;;;8.70;7.20;;;17.40;99.90;;;;;;4592293;19;20006;-36
2022/10/06 04:32:04;;;;;;;10.73;6.78;;;17.40;99.90;;;;;;4590721;19;20334;-39
2022/10/06 04:33:35;;;;;;;7.10;6.07;;;17.40;99.90;;;;;;4591681;19;20019;-33
2022/10/06 04:35:07;;;;;;;7.85;6.25;;;17.40;99.90;;;;;;4591962;19;20466;-34
2022/10/06 04:36:39;;;;;;;7.13;5.93;;;17.40;99.90;;;;;;4591666;19;20450;-34
2022/10/06 04:38:14;;;;;;;7.78;6.20;;;17.40;99.90;;;;;;4591497;19;20462;-36
2022/10/06 04:39:45;;;;;;;7.22;5.78;;;17.40;99.90;;;;;;4590547;19;20007;-36
2022/10/06 04:41:18;;;;;;;8.38;6.05;;;17.40;99.90;;;;;;4591008;19;20010;-35
2022/10/06 04:42:49;;;;;;;7.57;5.72;;;17.40;99.90;;;;;;4591051;19;20321;-34
2022/10/06 04:44:20;;;;;;;7.05;5.97;;;17.40;99.90;;;;;;4591479;19;20007;-34
2022/10/06 04:45:58;;;;;;;8.43;5.72;;;17.40;99.90;;;;;;4591349;19;20027;-36
2022/10/06 04:47:30;;;;;;;8.02;5.78;;;17.40;99.90;;;;;;4590056;19;20011;-33
2022/10/06 04:49:01;;;;;;;8.55;6.32;;;17.40;99.90;;;;;;4590599;19;20011;-37
2022/10/06 04:50:32;;;;;;;6.88;6.07;;;17.40;99.90;;;;;;4591190;19;20371;-32
2022/10/06 04:52:03;;;;;;;7.50;6.13;;;17.40;99.90;;;;;;4591965;19;20020;-36
2022/10/06 04:53:34;;;;;;;7.50;6.00;;;17.40;99.90;;;;;;4591289;19;20022;-37
2022/10/06 04:55:05;;;;;;;7.32;5.97;;;17.40;99.90;;;;;;4590365;19;20322;-33
2022/10/06 04:56:36;;;;;;;8.70;6.05;;;17.40;99.90;;;;;;4590299;19;20015;-33
2022/10/06 04:58:08;;;;;;;7.82;6.25;;;17.40;99.90;;;;;;4591490;19;20015;-34
2022/10/06 05:01:33;;;;;;;6.28;5.63;;;17.40;99.90;;;;;;4590617;19;20006;-37
2022/10/06 05:03:04;;;;;;;7.90;5.82;;;17.40;99.90;;;;;;4590699;19;20014;-38
2022/10/06 05:04:35;;;;;;;8.13;6.22;;;17.40;99.90;;;;;;4591018;19;20456;-34
2022/10/06 05:06:09;;;;;;;6.88;5.60;;;17.40;99.90;;;;;;4590033;19;20023;-36
2022/10/06 05:07:46;;;;;;;6.53;5.63;;;17.40;99.90;;;;;;4589605;19;20017;-38
2022/10/06 05:09:17;;;;;;;7.50;5.70;;;17.40;99.90;;;;;;4590987;19;20088;-37
2022/10/06 05:10:48;;;;;;;8.13;6.20;;;17.40;99.90;;;;;;4590656;19;20014;-33
2022/10/06 05:12:19;;;;;;;6.35;5.75;;;17.40;99.90;;;;;;4588678;19;20011;-33
2022/10/06 05:13:51;;;;;;;7.05;5.90;;;17.40;99.90;;;;;;4590149;19;20014;-38
2022/10/06 05:15:22;;;;;;;7.65;6.18;;;17.30;99.90;;;;;;4589880;19;20018;-34
2022/10/06 05:16:52;;;;;;;7.80;6.63;;;17.40;99.90;;;;;;4591483;19;20040;-34
2022/10/06 05:18:24;;;;;;;11.82;6.40;;;17.40;99.90;;;;;;4590495;19;20010;-37
2022/10/06 05:19:55;;;;;;;11.10;7.10;;;17.50;99.90;;;;;;4590988;19;20011;-35
2022/10/06 05:21:29;;;;;;;28.83;16.17;;;17.50;99.90;;;;;;4590228;19;20551;-35
2022/10/06 05:23:00;;;;;;;27.33;17.15;;;17.50;99.90;;;;;;4589135;19;20010;-38
2022/10/06 05:24:32;;;;;;;28.63;19.92;;;17.50;99.90;;;;;;4591222;19;20337;-37
2022/10/06 05:26:03;;;;;;;30.52;21.00;;;17.60;99.90;;;;;;4589868;19;20187;-40
2022/10/06 05:27:34;;;;;;;22.60;16.02;;;17.60;99.90;;;;;;4590009;19;20505;-39
2022/10/06 05:29:05;;;;;;;14.80;11.40;;;17.50;99.90;;;;;;4590408;19;20038;-33
2022/10/06 05:30:36;;;;;;;12.73;9.52;;;17.50;99.90;;;;;;4591251;19;20042;-40
2022/10/06 05:32:07;;;;;;;11.68;8.18;;;17.60;99.90;;;;;;4589354;19;20023;-32
2022/10/06 05:33:38;;;;;;;12.48;8.63;;;17.60;99.90;;;;;;4590504;19;20062;-37
2022/10/06 05:35:10;;;;;;;12.88;7.72;;;17.60;99.90;;;;;;4591005;19;20343;-37
2022/10/06 05:36:41;;;;;;;12.82;8.65;;;17.60;99.90;;;;;;4589796;19;20077;-35
2022/10/06 05:38:12;;;;;;;14.93;9.50;;;17.60;99.90;;;;;;4591099;19;20504;-41
2022/10/06 05:39:43;;;;;;;14.70;8.80;;;17.60;99.90;;;;;;4590214;19;20034;-39
2022/10/06 05:41:22;;;;;;;9.95;7.25;;;17.60;99.90;;;;;;4590694;19;20037;-33
2022/10/06 05:42:54;;;;;;;8.77;7.07;;;17.60;99.90;;;;;;4589922;19;20015;-36
2022/10/06 05:44:25;;;;;;;9.45;6.82;;;17.60;99.90;;;;;;4588821;19;20021;-39
2022/10/06 05:45:57;;;;;;;10.25;6.72;;;17.60;99.90;;;;;;4590984;19;20002;-37
2022/10/06 05:47:28;;;;;;;11.15;8.35;;;17.60;99.90;;;;;;4588360;19;20028;-34
2022/10/06 05:49:02;;;;;;;8.07;6.40;;;17.50;99.90;;;;;;4588962;19;20567;-34
2022/10/06 05:50:33;;;;;;;8.63;6.55;;;17.50;99.90;;;;;;4589678;19;20106;-38
2022/10/06 05:52:04;;;;;;;7.88;6.30;;;17.50;99.90;;;;;;4589498;19;20096;-36
2022/10/06 05:53:35;;;;;;;8.23;6.60;;;17.50;99.90;;;;;;4589754;19;20484;-39
2022/10/06 05:55:09;;;;;;;8.25;6.28;;;17.60;99.90;;;;;;4587585;19;20022;-35
2022/10/06 05:56:40;;;;;;;9.13;6.78;;;17.60;99.90;;;;;;4590641;19;20018;-39
2022/10/06 05:58:11;;;;;;;9.68;6.47;;;17.50;99.90;;;;;;4589626;19;20029;-34
2022/10/06 05:59:42;;;;;;;7.55;6.00;;;17.50;99.90;;;;;;4593388;19;20070;-34
2022/10/06 06:01:19;;;;;;;8.15;5.80;;;17.60;99.90;;;;;;4594291;19;20014;-35
2022/10/06 06:02:50;;;;;;;6.85;6.03;;;17.60;99.90;;;;;;4592501;19;20011;-35
2022/10/06 06:04:22;;;;;;;12.23;6.95;;;17.50;99.90;;;;;;4595109;19;20051;-35
2022/10/06 06:05:53;;;;;;;7.07;5.97;;;17.60;99.90;;;;;;4595140;19;20463;-38
2022/10/06 06:07:24;;;;;;;11.85;7.20;;;17.50;99.90;;;;;;4594892;19;20103;-38
2022/10/06 06:09:09;;;;;;;10.35;7.72;;;17.50;99.90;;;;;;4594475;19;20026;-34
2022/10/06 06:10:40;;;;;;;10.90;7.70;;;17.60;99.90;;;;;;4593820;19;20014;-36
2022/10/06 06:12:11;;;;;;;17.35;8.48;;;17.50;99.90;;;;;;4592747;19;20016;-34
2022/10/06 06:13:43;;;;;;;30.67;12.93;;;17.50;99.90;;;;;;4593759;19;20011;-35
2022/10/06 06:17:04;;;;;;;25.15;11.23;;;17.60;99.90;;;;;;4593785;19;20018;-42
2022/10/06 06:18:36;;;;;;;18.10;9.60;;;17.60;99.90;;;;;;4593024;19;20475;-39
2022/10/06 06:20:08;;;;;;;17.95;9.32;;;17.70;99.90;;;;;;4592317;19;20010;-34
2022/10/06 06:21:39;;;;;;;15.65;9.63;;;17.70;99.90;;;;;;4594466;19;20091;-41
2022/10/06 06:23:10;;;;;;;15.52;9.50;;;17.80;99.90;;;;;;4591842;19;20018;-33
2022/10/06 06:24:41;;;;;;;13.95;8.70;;;17.80;99.90;;;;;;4592802;19;20066;-35
2022/10/06 06:26:14;;;;;;;12.55;8.93;;;17.80;99.90;;;;;;4592401;19;20014;-34
2022/10/06 06:27:45;;;;;;;13.38;9.10;;;17.90;99.90;;;;;;4592410;19;20017;-37
2022/10/06 06:29:16;;;;;;;12.52;8.43;;;17.90;99.90;;;;;;4592375;19;20011;-36
2022/10/06 06:30:47;;;;;;;16.80;10.02;;;18.00;99.90;;;;;;4594696;19;20014;-40
2022/10/06 06:32:18;;;;;;;15.10;10.88;;;18.00;99.90;;;;;;4591381;19;20015;-34
2022/10/06 06:33:50;;;;;;;22.23;11.38;;;18.00;99.90;;;;;;4593353;19;20320;-37
2022/10/06 06:35:23;;;;;;;17.65;10.23;;;18.00;99.90;;;;;;4592749;19;20014;-37
2022/10/06 06:36:57;;;;;;;18.25;11.18;;;18.00;99.90;;;;;;4593803;19;20017;-34
2022/10/06 06:38:30;;;;;;;14.45;8.98;;;18.00;99.90;;;;;;4594036;19;20017;-35
2022/10/06 06:40:01;;;;;;;13.68;8.07;;;18.00;99.90;;;;;;4592951;19;20010;-38
2022/10/06 06:41:34;;;;;;;13.90;8.32;;;18.10;99.90;;;;;;4593137;19;20508;-40
2022/10/06 06:43:08;;;;;;;11.65;7.95;;;18.20;99.90;;;;;;4592709;19;20021;-37
2022/10/06 06:44:41;;;;;;;8.52;6.30;;;18.20;99.90;;;;;;4593407;19;20024;-34
2022/10/06 06:46:13;;;;;;;7.32;5.50;;;18.10;99.90;;;;;;4594455;19;20002;-35
2022/10/06 06:47:46;;;;;;;7.32;6.53;;;18.00;99.90;;;;;;4591000;19;20011;-38
2022/10/06 06:49:19;;;;;;;8.43;5.88;;;17.90;99.90;;;;;;4588468;19;20338;-33
2022/10/06 06:50:57;;;;;;;7.50;5.72;;;17.90;99.90;;;;;;4589059;19;20086;-36
2022/10/06 06:52:29;;;;;;;7.32;5.55;;;17.90;99.90;;;;;;4589125;19;20054;-34
2022/10/06 06:54:01;;;;;;;7.50;5.25;;;17.90;99.90;;;;;;4592346;19;20014;-34
2022/10/06 06:55:32;;;;;;;;;;;17.90;99.90;;;;;;4593996;19;20448;-34
2022/10/06 06:57:03;;;;;;;6.77;5.33;;;17.90;99.90;;;;;;4593586;19;19922;-33
2022/10/06 06:58:35;;;;;;;6.68;4.93;;;17.80;99.90;;;;;;4594224;19;20775;-34
2022/10/06 07:00:07;;;;;;;7.32;5.35;;;17.80;99.90;;;;;;4592093;19;20014;-34
2022/10/06 07:01:45;;;;;;;7.95;5.72;;;17.80;99.90;;;;;;4592659;19;20007;-38
2022/10/06 07:03:18;;;;;;;8.32;4.65;;;17.90;99.90;;;;;;4593575;19;20010;-33
2022/10/06 07:04:51;;;;;;;6.78;5.32;;;17.80;99.90;;;;;;4592763;19;20010;-36
2022/10/06 07:06:25;;;;;;;6.82;5.38;;;17.80;99.90;;;;;;4592644;19;20015;-39
2022/10/06 07:07:56;;;;;;;8.77;5.60;;;17.80;99.90;;;;;;4593077;19;20022;-34
2022/10/06 07:09:27;;;;;;;7.45;5.47;;;17.80;99.90;;;;;;4593259;19;20333;-41
2022/10/06 07:10:58;;;;;;;7.22;5.60;;;17.80;99.90;;;;;;4593648;19;20011;-38
2022/10/06 07:12:29;;;;;;;6.05;4.80;;;17.80;99.90;;;;;;4591763;19;20011;-33
2022/10/06 07:14:05;;;;;;;7.15;4.95;;;17.80;99.90;;;;;;4593412;19;20011;-36
2022/10/06 07:25:13;;;;;;;9.00;6.90;;;17.80;99.90;;;;;;4588744;19;20456;-35
2022/10/06 07:26:45;;;;;;;8.15;6.68;;;17.80;99.90;;;;;;4589912;19;20018;-34
2022/10/06 07:28:16;;;;;;;9.80;7.70;;;17.80;99.90;;;;;;4586234;19;20386;-33
2022/10/06 07:29:50;;;;;;;9.38;7.10;;;17.70;99.90;;;;;;4590613;19;20010;-32
2022/10/06 07:31:21;;;;;;;8.43;6.15;;;17.70;99.90;;;;;;4589722;19;20017;-34
2022/10/06 07:32:52;;;;;;;9.30;8.20;;;17.70;99.90;;;;;;4589484;19;20326;-34
2022/10/06 07:34:23;;;;;;;10.52;8.68;;;17.70;99.90;;;;;;4590670;19;20091;-35
2022/10/06 07:35:54;;;;;;;10.45;8.02;;;17.70;99.90;;;;;;4590365;19;20022;-38
2022/10/06 07:37:25;;;;;;;10.35;7.93;;;17.70;99.90;;;;;;4589688;19;20018;-34
2022/10/06 07:38:57;;;;;;;8.30;7.10;;;17.70;99.90;;;;;;4586594;19;20018;-36
2022/10/06 07:40:28;;;;;;;6.75;5.63;;;17.70;99.90;;;;;;4590128;19;20106;-37
2022/10/06 07:41:59;;;;;;;8.70;6.13;;;17.70;99.90;;;;;;4590071;19;20007;-35
2022/10/06 07:43:30;;;;;;;11.43;9.05;;;17.80;99.90;;;;;;4589685;19;20409;-34
2022/10/06 07:46:51;;;;;;;10.35;7.38;;;17.90;99.90;;;;;;4585673;19;20074;-41
2022/10/06 07:48:22;;;;;;;7.78;6.53;;;18.00;99.90;;;;;;4588118;19;20022;-34
2022/10/06 07:49:54;;;;;;;9.15;5.43;;;18.00;99.90;;;;;;4586841;19;20335;-37
2022/10/06 07:51:27;;;;;;;7.05;4.95;;;18.00;99.90;;;;;;4590206;19;20011;-34
2022/10/06 07:53:07;;;;;;;5.95;4.80;;;18.00;99.90;;;;;;4591527;19;20441;-36
2022/10/06 07:54:38;;;;;;;6.60;5.43;;;18.00;99.90;;;;;;4590307;19;20014;-39
2022/10/06 07:56:11;;;;;;;7.15;4.95;;;18.00;99.90;;;;;;4591237;19;20020;-35
2022/10/06 07:57:45;;;;;;;6.80;4.30;;;18.00;99.90;;;;;;4592002;19;20021;-37
2022/10/06 07:59:17;;;;;;;5.90;4.45;;;17.90;99.90;;;;;;4590262;19;20369;-35
2022/10/06 08:00:48;;;;;;;5.57;4.53;;;18.00;99.90;;;;;;4591494;19;20006;-34
2022/10/06 08:02:19;;;;;;;6.20;4.35;;;18.00;99.90;;;;;;4591795;19;20094;-41
2022/10/06 08:03:50;;;;;;;7.63;4.95;;;18.00;99.90;;;;;;4591620;19;20337;-34
2022/10/06 08:05:21;;;;;;;8.07;5.65;;;18.10;99.90;;;;;;4591373;19;20003;-37
2022/10/06 08:06:53;;;;;;;7.22;5.57;;;18.10;99.90;;;;;;4590907;19;20038;-35
2022/10/06 08:08:24;;;;;;;;;;;18.10;99.90;;;;;;4590171;19;20010;-33
2022/10/06 08:09:55;;;;;;;7.53;5.20;;;18.10;99.90;;;;;;4590991;19;19915;-33
2022/10/06 08:11:26;;;;;;;7.22;5.47;;;18.10;99.90;;;;;;4590652;19;20811;-38
2022/10/06 08:12:57;;;;;;;6.88;5.18;;;18.10;99.90;;;;;;4590984;19;20062;-34
2022/10/06 08:14:28;;;;;;;5.70;4.85;;;18.00;99.90;;;;;;4591542;19;20014;-34